49TE weather

K Star Ranch Airport
Brenham, Texas, United States

Public forecast

Using degrees Fahrenheit for public forecast. Weather courtesy of forecast.io.

METAR (pilot weather report)

Closest report is Brenham Municipal Airport, 5.9 nm (10.9 km) SE. Retrieved 2019/07/18 03:35 UTC (11 minutes ago):

K11R 180335Z AUTO 16007KT 10SM CLR 29/24 A3001 RMK AO2 T02900237

TAF (pilot weather forecast)

Forecast is more than 12 hours old.

Closest forecast is Easterwood Field, 19.0 nm (35.1 km) NNE. Retrieved 2019/07/17 00:24 UTC (1 day ago):

TAF KCLL 172322Z 1800/1824 16011KT P6SM FEW060 SCT250 FM180900 16005KT P6SM BKN012 FM181500 18010KT P6SM SCT025 FM181700 18012G22KT P6SM SCT040